Time;durP1;ratioP1;P1;durP2;ratioP2;P2;SDS_P1;SDS_P2;PMS_P1;PMS_P2;Temp;Humidity;BMP_temperature;BMP_pressure;BME280_temperature;BME280_humidity;BME280_pressure;Samples;Min_cycle;Max_cycle;Signal;HPM_P1;HPM_P2
2023/07/12 00:02:19;;;;;;;6.00;2.60;;;21.30;36.50;;;;;;5045413;28;20844;-66
2023/07/12 00:04:45;;;;;;;7.20;2.57;;;21.30;36.40;;;;;;5047166;28;20486;-66
2023/07/12 00:07:13;;;;;;;6.00;2.90;;;21.30;36.10;;;;;;5044665;28;20462;-66
2023/07/12 00:09:40;;;;;;;8.30;3.20;;;21.30;36.30;;;;;;5043502;28;20462;-66
2023/07/12 00:12:07;;;;;;;6.90;2.67;;;21.30;36.60;;;;;;5045066;28;20887;-67
2023/07/12 00:14:34;;;;;;;9.43;3.20;;;21.30;36.80;;;;;;5045475;28;20481;-67
2023/07/12 00:17:02;;;;;;;9.03;3.00;;;21.30;36.80;;;;;;5046209;28;20462;-67
2023/07/12 00:19:29;;;;;;;11.83;2.67;;;21.30;36.60;;;;;;5047808;28;20862;-67
2023/07/12 00:21:56;;;;;;;7.23;2.77;;;21.30;36.70;;;;;;5046188;28;20473;-67
2023/07/12 00:24:22;;;;;;;8.13;3.23;;;21.30;36.70;;;;;;5045693;28;20501;-67
2023/07/12 00:26:49;;;;;;;10.30;3.60;;;21.40;36.80;;;;;;5047018;28;20484;-67
2023/07/12 00:29:16;;;;;;;8.50;3.70;;;21.40;36.60;;;;;;5046362;28;20462;-67
2023/07/12 00:31:42;;;;;;;8.90;3.30;;;21.40;36.50;;;;;;5041857;28;20478;-67
2023/07/12 00:34:10;;;;;;;9.50;4.10;;;21.50;36.70;;;;;;5044962;28;20478;-67
2023/07/12 00:36:37;;;;;;;8.37;3.50;;;21.50;36.60;;;;;;5043749;28;20462;-67
2023/07/12 00:39:06;;;;;;;8.73;3.70;;;21.50;36.60;;;;;;5047351;28;20883;-68
2023/07/12 00:42:02;;;;;;;8.03;3.80;;;21.40;37.10;;;;;;5046694;28;20493;-67
2023/07/12 00:44:34;;;;;;;9.07;4.10;;;21.40;37.10;;;;;;5046228;28;20577;-67
2023/07/12 00:47:00;;;;;;;9.43;4.37;;;21.40;37.00;;;;;;5046884;28;20986;-65
2023/07/12 00:49:29;;;;;;;11.57;4.33;;;21.40;37.20;;;;;;5047462;28;20466;-65
2023/07/12 00:52:00;;;;;;;9.50;4.90;;;21.30;37.20;;;;;;5041749;28;20469;-65
2023/07/12 00:54:47;;;;;;;8.13;3.83;;;21.40;37.20;;;;;;5046008;28;20473;-65
2023/07/12 00:57:13;;;;;;;11.60;4.07;;;21.40;37.30;;;;;;5046696;28;20457;-65
2023/07/12 00:59:41;;;;;;;6.97;3.97;;;21.40;36.60;;;;;;5046489;28;20494;-65
2023/07/12 01:02:09;;;;;;;10.70;4.30;;;21.40;36.70;;;;;;5044153;28;20482;-65
2023/07/12 01:04:40;;;;;;;8.70;4.37;;;21.40;37.10;;;;;;5045551;28;20493;-65
2023/07/12 01:07:07;;;;;;;7.57;4.10;;;21.30;37.30;;;;;;5048425;28;20484;-65
2023/07/12 01:09:34;;;;;;;8.80;4.87;;;21.30;37.50;;;;;;5051785;28;20472;-65
2023/07/12 01:12:01;;;;;;;10.63;4.60;;;21.20;37.70;;;;;;5048328;28;20470;-65
2023/07/12 01:14:28;;;;;;;9.40;5.03;;;21.20;37.80;;;;;;5050817;28;21067;-65
2023/07/12 01:16:59;;;;;;;9.60;4.00;;;21.20;37.70;;;;;;5050089;28;20466;-65
2023/07/12 01:19:26;;;;;;;11.47;4.33;;;21.20;38.40;;;;;;5049798;28;20466;-65
2023/07/12 01:21:55;;;;;;;10.20;4.50;;;21.30;37.90;;;;;;5049805;28;20485;-66
2023/07/12 01:24:24;;;;;;;8.57;4.30;;;21.20;38.00;;;;;;5047181;28;20520;-65
2023/07/12 01:26:56;;;;;;;23.03;6.03;;;21.20;38.90;;;;;;5045171;28;20461;-65
2023/07/12 01:29:23;;;;;;;9.27;4.93;;;21.10;38.70;;;;;;5050153;28;20950;-65
2023/07/12 01:31:51;;;;;;;10.10;4.77;;;21.10;39.10;;;;;;5050505;28;20470;-66
2023/07/12 01:34:19;;;;;;;12.43;5.40;;;21.10;38.80;;;;;;5049843;28;20492;-65
2023/07/12 01:36:46;;;;;;;9.50;4.77;;;21.00;38.70;;;;;;5048264;28;20462;-65
2023/07/12 01:39:14;;;;;;;14.43;6.73;;;21.00;38.80;;;;;;5048891;28;20462;-65
2023/07/12 01:41:41;;;;;;;12.30;6.90;;;21.00;38.80;;;;;;5050091;28;20462;-65
2023/07/12 01:44:08;;;;;;;14.57;7.00;;;21.00;38.70;;;;;;5045034;28;20501;-66
2023/07/12 01:46:35;;;;;;;14.70;7.00;;;21.00;38.40;;;;;;5043712;28;20462;-66
2023/07/12 01:49:01;;;;;;;14.80;6.70;;;21.10;38.30;;;;;;5048788;28;21041;-65
2023/07/12 01:51:29;;;;;;;12.13;7.00;;;21.10;38.40;;;;;;5048581;28;20467;-65
2023/07/12 01:53:56;;;;;;;12.30;6.50;;;21.10;38.70;;;;;;5047397;28;20483;-65
2023/07/12 01:56:24;;;;;;;14.83;7.27;;;21.10;38.60;;;;;;5048178;28;20465;-65
2023/07/12 01:58:51;;;;;;;17.07;6.70;;;21.10;38.70;;;;;;5044653;28;20481;-65
2023/07/12 02:01:18;;;;;;;12.60;6.20;;;21.10;39.00;;;;;;5049845;28;20477;-65
2023/07/12 02:03:44;;;;;;;13.40;6.50;;;21.10;38.80;;;;;;5048486;28;20485;-65
2023/07/12 02:06:11;;;;;;;15.90;7.23;;;21.10;38.90;;;;;;5046650;28;20477;-66
2023/07/12 02:08:38;;;;;;;24.27;7.83;;;21.10;38.80;;;;;;5048288;28;20828;-65
2023/07/12 02:11:04;;;;;;;21.80;9.23;;;21.20;38.60;;;;;;5046107;28;20468;-65
2023/07/12 02:13:33;;;;;;;24.40;7.60;;;21.20;38.30;;;;;;5049473;28;20481;-65
2023/07/12 02:15:59;;;;;;;14.70;6.13;;;21.20;38.40;;;;;;5049725;28;20547;-66
2023/07/12 02:18:26;;;;;;;11.97;6.57;;;21.20;38.20;;;;;;5048423;28;20477;-66
2023/07/12 02:20:53;;;;;;;15.33;5.13;;;21.30;37.90;;;;;;5048207;28;20458;-65
2023/07/12 02:23:19;;;;;;;9.20;4.93;;;21.30;37.70;;;;;;5047570;28;20489;-65
2023/07/12 02:25:46;;;;;;;10.83;6.00;;;21.30;37.60;;;;;;5050089;28;20473;-66
2023/07/12 02:28:13;;;;;;;10.67;5.80;;;21.30;37.70;;;;;;5048763;28;20473;-65
2023/07/12 02:30:44;;;;;;;9.57;4.70;;;21.20;37.80;;;;;;5047742;28;20492;-65
2023/07/12 02:33:11;;;;;;;11.80;4.60;;;21.20;37.60;;;;;;5046571;28;20547;-65
2023/07/12 02:35:42;;;;;;;10.10;4.50;;;21.20;37.40;;;;;;5049020;28;20462;-65
2023/07/12 02:38:09;;;;;;;10.40;5.60;;;21.10;38.00;;;;;;5051552;28;20458;-66
2023/07/12 02:40:36;;;;;;;9.40;4.53;;;21.10;37.00;;;;;;5052587;28;20460;-66
2023/07/12 02:43:03;;;;;;;10.70;5.43;;;21.10;37.10;;;;;;5051633;28;20456;-66
2023/07/12 02:45:29;;;;;;;8.60;4.67;;;21.20;37.00;;;;;;5051801;28;20469;-66
2023/07/12 02:47:57;;;;;;;9.33;4.80;;;21.20;36.80;;;;;;5050213;28;20846;-65
2023/07/12 02:50:24;;;;;;;10.83;6.10;;;21.20;36.80;;;;;;5049600;28;20480;-65
2023/07/12 02:52:51;;;;;;;8.80;5.20;;;21.20;37.10;;;;;;5048060;28;20478;-66
2023/07/12 02:55:18;;;;;;;12.40;5.60;;;21.20;37.10;;;;;;5043502;28;20462;-65
2023/07/12 02:57:44;;;;;;;13.23;6.10;;;21.20;37.20;;;;;;5041725;28;21030;-65
2023/07/12 03:00:12;;;;;;;13.13;5.73;;;21.10;37.30;;;;;;5048189;28;20469;-65
2023/07/12 03:02:39;;;;;;;11.90;6.80;;;21.10;37.70;;;;;;5048629;28;21212;-65
2023/07/12 03:05:08;;;;;;;17.33;7.03;;;21.10;37.80;;;;;;5046034;28;20482;-65
2023/07/12 03:07:35;;;;;;;13.50;6.87;;;21.00;38.00;;;;;;5040614;28;20826;-64
2023/07/12 03:10:03;;;;;;;11.10;5.33;;;21.00;37.80;;;;;;5047132;28;20954;-64
2023/07/12 03:12:30;;;;;;;12.97;6.70;;;21.00;37.90;;;;;;5046538;28;20870;-65
2023/07/12 03:14:57;;;;;;;12.80;6.47;;;21.00;38.00;;;;;;5042874;28;20473;-66
2023/07/12 03:17:24;;;;;;;14.03;6.17;;;20.90;38.10;;;;;;5045571;28;20488;-66
2023/07/12 03:19:51;;;;;;;12.33;5.53;;;20.90;38.20;;;;;;5046511;28;20458;-66
2023/07/12 03:22:19;;;;;;;14.03;6.53;;;20.90;38.20;;;;;;5046580;28;20468;-66
2023/07/12 03:24:46;;;;;;;12.37;6.60;;;20.90;38.30;;;;;;5048878;28;20864;-66
2023/07/12 03:27:12;;;;;;;10.53;6.23;;;20.80;38.50;;;;;;5047605;28;20814;-66
2023/07/12 03:29:39;;;;;;;12.37;7.27;;;20.80;38.60;;;;;;5047887;28;20466;-66
2023/07/12 03:32:06;;;;;;;15.93;7.30;;;20.80;38.60;;;;;;5046505;28;21008;-66
2023/07/12 03:34:33;;;;;;;16.87;7.07;;;20.80;38.30;;;;;;5048345;28;20889;-66
2023/07/12 03:37:01;;;;;;;16.73;6.83;;;20.80;38.50;;;;;;5046538;28;20466;-67
2023/07/12 03:39:29;;;;;;;15.20;6.87;;;20.80;38.50;;;;;;5048069;28;20498;-67
2023/07/12 03:41:56;;;;;;;10.37;6.53;;;20.80;38.40;;;;;;5045597;28;20965;-67
2023/07/12 03:44:23;;;;;;;11.80;8.27;;;20.80;38.50;;;;;;5033841;28;20493;-67
2023/07/12 03:46:50;;;;;;;12.40;7.23;;;20.80;38.50;;;;;;5043517;28;20469;-67
2023/07/12 03:49:16;;;;;;;12.07;7.47;;;20.80;38.70;;;;;;5043691;28;20478;-67
2023/07/12 03:51:43;;;;;;;10.93;6.50;;;20.80;38.50;;;;;;5039264;28;20945;-66
2023/07/12 03:54:10;;;;;;;10.23;6.43;;;20.80;38.80;;;;;;5047078;28;20479;-66
2023/07/12 03:56:38;;;;;;;13.10;7.23;;;20.80;38.50;;;;;;5046868;28;20494;-66
2023/07/12 03:59:04;;;;;;;13.17;6.70;;;20.80;38.60;;;;;;5047875;28;20468;-66
2023/07/12 04:01:31;;;;;;;11.63;6.37;;;20.80;38.60;;;;;;5045061;28;20494;-66
2023/07/12 04:03:58;;;;;;;13.07;6.70;;;20.80;38.50;;;;;;5047045;28;20497;-66
2023/07/12 04:06:25;;;;;;;11.00;6.10;;;20.80;38.60;;;;;;5047327;28;21005;-66
2023/07/12 04:08:51;;;;;;;11.50;6.10;;;20.80;38.60;;;;;;5046339;28;20966;-66
2023/07/12 04:11:27;;;;;;;11.90;6.40;;;20.80;38.60;;;;;;5044458;28;20473;-66
2023/07/12 04:13:55;;;;;;;11.93;5.50;;;20.80;38.80;;;;;;5041932;28;21033;-66
2023/07/12 04:16:23;;;;;;;10.87;6.10;;;20.90;38.60;;;;;;5047675;28;20880;-66
2023/07/12 04:18:49;;;;;;;13.30;5.87;;;21.00;38.00;;;;;;5047807;28;20485;-66
2023/07/12 04:21:16;;;;;;;11.77;5.87;;;21.00;37.60;;;;;;5047820;28;20465;-66
2023/07/12 04:23:43;;;;;;;10.70;5.50;;;21.10;37.70;;;;;;5042345;28;20487;-66
2023/07/12 04:26:10;;;;;;;11.33;5.50;;;21.10;37.50;;;;;;5047423;28;21212;-66
2023/07/12 04:28:39;;;;;;;14.27;5.10;;;21.20;37.60;;;;;;5046951;28;20465;-66
2023/07/12 04:31:11;;;;;;;14.27;5.80;;;21.30;37.10;;;;;;5047393;28;20477;-66
2023/07/12 04:33:38;;;;;;;12.20;5.00;;;21.40;37.10;;;;;;5042610;28;20563;-66
2023/07/12 04:36:06;;;;;;;13.83;5.53;;;21.60;36.60;;;;;;5047117;28;20894;-66
2023/07/12 04:38:33;;;;;;;13.43;5.20;;;21.80;36.50;;;;;;5047547;28;20466;-66
2023/07/12 04:41:00;;;;;;;15.80;6.53;;;22.20;36.10;;;;;;5048029;28;20486;-66
2023/07/12 04:43:26;;;;;;;13.73;6.63;;;22.50;35.40;;;;;;5051255;28;20486;-66
2023/07/12 04:45:53;;;;;;;15.27;6.27;;;22.60;34.40;;;;;;5051958;28;20469;-66
2023/07/12 04:48:22;;;;;;;10.80;5.80;;;22.60;33.80;;;;;;5051838;28;20469;-66
2023/07/12 04:50:51;;;;;;;12.70;6.37;;;22.50;34.00;;;;;;5051149;28;20480;-67
2023/07/12 04:53:18;;;;;;;12.37;6.23;;;22.50;34.00;;;;;;5048278;28;20482;-66
2023/07/12 04:55:45;;;;;;;15.27;6.67;;;22.50;33.70;;;;;;5045588;28;20545;-66
2023/07/12 04:58:12;;;;;;;11.57;5.60;;;22.40;33.60;;;;;;5050940;28;20466;-66
2023/07/12 05:00:39;;;;;;;12.97;6.70;;;22.30;33.60;;;;;;5049176;28;20508;-66
2023/07/12 05:03:06;;;;;;;13.20;6.70;;;22.30;34.00;;;;;;5051407;28;20468;-66
2023/07/12 05:05:34;;;;;;;13.13;6.77;;;22.30;33.80;;;;;;5054545;28;20478;-66
2023/07/12 05:08:01;;;;;;;13.77;5.50;;;22.20;33.90;;;;;;5048057;28;20493;-66
2023/07/12 05:10:27;;;;;;;11.90;6.30;;;22.20;34.10;;;;;;5050697;28;20469;-66
2023/07/12 05:12:54;;;;;;;16.33;6.30;;;22.10;34.20;;;;;;5050496;28;20457;-66
2023/07/12 05:15:21;;;;;;;13.97;7.17;;;22.10;34.70;;;;;;5050817;28;20469;-66
2023/07/12 05:17:47;;;;;;;10.40;6.07;;;22.10;34.40;;;;;;5051268;28;20465;-66
2023/07/12 05:20:15;;;;;;;16.87;7.23;;;22.10;34.60;;;;;;5049469;28;20469;-66
2023/07/12 05:22:44;;;;;;;10.17;6.20;;;22.00;34.50;;;;;;5048392;28;20480;-66
2023/07/12 05:25:11;;;;;;;14.03;6.50;;;22.00;34.70;;;;;;5050165;28;20508;-66
2023/07/12 05:27:39;;;;;;;11.30;5.70;;;22.00;35.00;;;;;;5050058;28;20465;-66
2023/07/12 05:30:06;;;;;;;12.10;5.80;;;22.00;35.00;;;;;;5046996;28;20545;-66
2023/07/12 05:32:33;;;;;;;13.77;5.70;;;21.90;35.10;;;;;;5044003;28;20470;-66
2023/07/12 05:35:00;;;;;;;12.23;5.53;;;21.90;34.90;;;;;;5050106;28;20477;-66
2023/07/12 05:37:27;;;;;;;8.47;4.80;;;21.90;34.90;;;;;;5050337;28;20454;-66
2023/07/12 05:39:55;;;;;;;9.87;5.77;;;21.90;34.80;;;;;;5049700;28;20560;-66
2023/07/12 05:42:22;;;;;;;13.23;5.90;;;21.90;34.70;;;;;;5049946;28;20458;-67
2023/07/12 05:44:48;;;;;;;15.27;5.40;;;21.90;34.80;;;;;;5045631;28;20973;-67
2023/07/12 05:47:15;;;;;;;12.00;4.90;;;21.90;34.60;;;;;;5046704;28;20458;-67
2023/07/12 05:49:42;;;;;;;9.30;5.00;;;21.90;34.70;;;;;;5047490;28;20516;-67
2023/07/12 05:52:09;;;;;;;8.83;5.00;;;21.90;34.50;;;;;;5050233;28;20458;-66
2023/07/12 05:54:35;;;;;;;10.20;4.70;;;21.90;34.80;;;;;;5045082;28;20482;-66
2023/07/12 05:57:04;;;;;;;16.17;5.30;;;21.90;35.00;;;;;;5051075;28;20473;-66
2023/07/12 05:59:31;;;;;;;11.33;5.50;;;21.90;35.10;;;;;;5050272;28;20454;-66
2023/07/12 06:01:57;;;;;;;8.83;4.33;;;21.90;35.00;;;;;;5048773;28;22075;-67
2023/07/12 06:04:24;;;;;;;9.03;5.20;;;21.90;35.10;;;;;;5048404;28;20572;-66
2023/07/12 06:06:52;;;;;;;10.57;5.20;;;22.00;35.20;;;;;;5049152;28;20466;-66
2023/07/12 06:09:19;;;;;;;10.57;4.97;;;22.00;35.40;;;;;;5050337;28;20465;-66
2023/07/12 06:11:46;;;;;;;10.97;4.40;;;22.00;35.50;;;;;;5050757;28;20485;-66
2023/07/12 06:14:14;;;;;;;9.17;4.10;;;22.00;35.20;;;;;;5049562;28;20484;-66
2023/07/12 06:16:41;;;;;;;7.30;4.10;;;22.10;35.00;;;;;;5049154;28;20469;-66
2023/07/12 06:19:08;;;;;;;9.47;5.60;;;22.10;34.60;;;;;;5048184;28;20458;-67
2023/07/12 06:21:34;;;;;;;11.17;4.80;;;22.10;34.80;;;;;;5047235;28;20490;-66
2023/07/12 06:24:02;;;;;;;13.10;4.60;;;22.20;34.80;;;;;;5048545;28;20478;-66
2023/07/12 06:26:29;;;;;;;9.00;4.40;;;22.30;34.30;;;;;;5048709;28;20464;-66
2023/07/12 06:28:55;;;;;;;8.93;4.70;;;22.40;33.80;;;;;;5048663;28;20458;-67
2023/07/12 06:31:23;;;;;;;11.80;4.57;;;22.40;33.50;;;;;;5047306;28;20463;-67
2023/07/12 06:33:50;;;;;;;9.63;4.43;;;22.50;33.60;;;;;;5049695;28;20477;-67
2023/07/12 06:36:17;;;;;;;9.70;4.30;;;22.50;33.10;;;;;;5046978;28;20977;-66
2023/07/12 06:38:45;;;;;;;11.87;4.93;;;22.50;33.20;;;;;;5048039;28;20468;-66
2023/07/12 06:41:12;;;;;;;7.53;4.30;;;22.50;33.00;;;;;;5046166;28;20465;-67
2023/07/12 06:43:39;;;;;;;11.13;4.77;;;22.50;33.10;;;;;;5043399;28;21069;-66
2023/07/12 06:46:06;;;;;;;8.87;4.43;;;22.60;33.00;;;;;;5046437;28;20493;-66
2023/07/12 06:48:34;;;;;;;7.80;4.20;;;22.70;32.80;;;;;;5048837;28;20465;-66
2023/07/12 06:51:01;;;;;;;9.07;4.57;;;22.70;32.90;;;;;;5049433;28;20466;-66
2023/07/12 06:53:27;;;;;;;12.20;4.50;;;22.80;32.60;;;;;;5048356;28;20486;-67
2023/07/12 06:55:54;;;;;;;11.77;4.83;;;22.80;32.40;;;;;;5048187;28;20909;-66
2023/07/12 06:58:21;;;;;;;11.03;5.20;;;22.90;31.70;;;;;;5049060;28;20627;-66
2023/07/12 07:00:48;;;;;;;13.40;5.13;;;22.90;32.00;;;;;;5048121;28;20474;-66
2023/07/12 07:03:16;;;;;;;9.80;4.70;;;23.00;31.80;;;;;;5048440;28;20483;-66
2023/07/12 07:05:46;;;;;;;11.63;4.30;;;23.10;32.10;;;;;;5046986;28;20839;-67
2023/07/12 07:08:14;;;;;;;13.23;5.70;;;23.20;31.50;;;;;;5049047;28;20458;-67
2023/07/12 07:10:40;;;;;;;10.53;4.73;;;23.50;31.30;;;;;;5042372;28;20470;-67
2023/07/12 07:13:08;;;;;;;13.93;5.40;;;23.80;30.70;;;;;;5048706;28;20462;-67
2023/07/12 07:15:35;;;;;;;7.17;3.87;;;24.30;30.30;;;;;;5044497;28;20450;-67
2023/07/12 07:18:02;;;;;;;8.60;3.70;;;24.80;28.20;;;;;;5047765;28;20465;-67
2023/07/12 07:20:29;;;;;;;10.63;3.83;;;25.20;27.20;;;;;;5048436;28;20462;-67
2023/07/12 07:22:58;;;;;;;12.77;4.97;;;25.70;24.40;;;;;;5048991;28;20911;-67
2023/07/12 07:25:27;;;;;;;10.03;4.20;;;26.10;23.70;;;;;;5046453;28;20989;-67
2023/07/12 07:27:54;;;;;;;10.00;3.23;;;26.70;22.00;;;;;;5048689;28;20465;-67
2023/07/12 07:30:21;;;;;;;7.07;3.70;;;26.90;20.00;;;;;;5047250;28;20469;-67
2023/07/12 07:32:47;;;;;;;8.33;4.13;;;26.70;19.80;;;;;;5045963;28;20466;-66
2023/07/12 07:35:14;;;;;;;7.33;4.03;;;26.60;20.00;;;;;;5047384;28;20942;-67
2023/07/12 07:37:42;;;;;;;7.47;3.70;;;26.70;20.00;;;;;;5047191;28;20485;-67
2023/07/12 07:40:11;;;;;;;9.00;3.80;;;26.80;19.60;;;;;;5048656;28;20962;-66
2023/07/12 07:42:38;;;;;;;10.97;4.20;;;27.40;19.50;;;;;;5044204;28;20978;-66
2023/07/12 07:45:05;;;;;;;7.73;3.90;;;28.30;17.30;;;;;;5041852;28;20491;-67
2023/07/12 07:47:33;;;;;;;11.27;3.63;;;29.60;14.80;;;;;;5045376;28;20462;-67
2023/07/12 07:50:00;;;;;;;7.80;3.67;;;31.00;12.00;;;;;;5048334;28;21115;-68
2023/07/12 07:52:26;;;;;;;7.90;3.50;;;32.20;9.60;;;;;;5044470;28;20806;-67
2023/07/12 07:54:53;;;;;;;9.50;4.10;;;33.20;7.20;;;;;;5048968;28;21009;-68
2023/07/12 07:57:22;;;;;;;8.30;4.80;;;33.90;5.00;;;;;;5052153;28;20465;-67
2023/07/12 07:59:49;;;;;;;11.10;3.40;;;34.30;4.10;;;;;;5049830;28;20883;-67
2023/07/12 08:02:16;;;;;;;9.30;3.80;;;35.00;3.60;;;;;;5050880;28;20508;-67
2023/07/12 08:04:42;;;;;;;9.33;3.93;;;35.60;1.60;;;;;;5046659;28;20812;-67
2023/07/12 08:07:12;;;;;;;7.67;3.43;;;36.60;1.00;;;;;;5048003;28;20469;-68
2023/07/12 08:09:39;;;;;;;8.80;3.67;;;37.60;1.00;;;;;;5046880;28;20490;-68
2023/07/12 08:12:07;;;;;;;6.80;3.43;;;38.40;1.00;;;;;;5047125;28;20485;-69
2023/07/12 08:14:35;;;;;;;7.80;3.70;;;39.30;1.00;;;;;;5046477;28;20480;-69
2023/07/12 08:17:01;;;;;;;7.23;3.27;;;40.10;1.00;;;;;;5046455;28;20474;-69
2023/07/12 08:19:28;;;;;;;9.13;3.57;;;41.00;1.00;;;;;;5048360;28;20465;-69
2023/07/12 08:21:55;;;;;;;8.50;3.40;;;42.20;1.00;;;;;;5047211;28;20454;-69
2023/07/12 08:24:21;;;;;;;10.30;3.87;;;43.30;1.00;;;;;;5042059;28;20493;-69
2023/07/12 08:26:48;;;;;;;8.47;3.30;;;44.30;1.00;;;;;;5047427;28;21063;-69
2023/07/12 08:29:15;;;;;;;9.00;3.57;;;45.30;1.00;;;;;;5047801;28;20458;-68
2023/07/12 08:31:43;;;;;;;12.20;4.07;;;46.30;1.00;;;;;;5045239;28;20478;-69
2023/07/12 08:34:11;;;;;;;7.97;3.47;;;47.30;1.00;;;;;;5046548;28;20470;-69
2023/07/12 08:36:37;;;;;;;8.93;3.83;;;47.90;1.00;;;;;;5046961;28;20458;-69
2023/07/12 08:39:04;;;;;;;6.50;3.10;;;48.70;1.00;;;;;;5049189;28;20458;-69
2023/07/12 08:41:31;;;;;;;8.20;3.80;;;49.30;1.00;;;;;;5048845;28;20486;-69
2023/07/12 08:43:58;;;;;;;8.23;3.87;;;49.80;1.00;;;;;;5045418;28;20486;-69
2023/07/12 08:46:26;;;;;;;9.77;3.80;;;50.40;1.00;;;;;;5048568;28;20485;-69
2023/07/12 08:48:58;;;;;;;9.17;4.20;;;50.40;1.00;;;;;;5046351;28;20982;-69
2023/07/12 08:51:28;;;;;;;7.80;3.50;;;50.80;1.00;;;;;;5044400;28;20504;-67
2023/07/12 08:53:55;;;;;;;7.10;3.67;;;51.00;1.00;;;;;;5044764;28;20473;-69
2023/07/12 08:56:22;;;;;;;8.00;3.43;;;51.30;1.00;;;;;;5045698;28;20462;-69
2023/07/12 08:58:51;;;;;;;10.33;4.10;;;51.50;1.00;;;;;;5046845;28;20453;-69
2023/07/12 09:01:37;;;;;;;7.43;4.00;;;51.90;1.00;;;;;;5046170;28;20482;-69
2023/07/12 09:04:23;;;;;;;8.33;4.10;;;52.10;1.00;;;;;;5046727;28;20571;-68
2023/07/12 09:06:51;;;;;;;8.90;3.77;;;52.50;1.00;;;;;;5043742;28;20988;-67
2023/07/12 09:09:19;;;;;;;7.20;3.67;;;52.50;1.00;;;;;;5046709;28;20567;-67
2023/07/12 09:11:46;;;;;;;8.20;3.90;;;52.00;1.00;;;;;;5042780;28;20482;-67
2023/07/12 09:14:16;;;;;;;10.03;4.20;;;52.20;1.00;;;;;;5045127;28;20489;-67
2023/07/12 09:16:46;;;;;;;9.30;3.80;;;52.40;1.00;;;;;;5043346;28;20553;-67
2023/07/12 09:19:16;;;;;;;9.40;4.30;;;52.90;1.00;;;;;;5046974;28;20480;-67
2023/07/12 09:21:48;;;;;;;7.10;3.90;;;53.10;1.00;;;;;;5038647;28;21032;-67
2023/07/12 09:24:20;;;;;;;9.53;4.53;;;53.30;1.00;;;;;;5045086;28;20512;-67
2023/07/12 09:26:48;;;;;;;10.53;4.37;;;53.20;1.00;;;;;;5046701;28;20529;-67
2023/07/12 09:29:19;;;;;;;7.63;3.60;;;53.10;1.00;;;;;;5048658;28;20973;-68
2023/07/12 09:31:46;;;;;;;7.10;4.00;;;52.60;1.00;;;;;;5050128;28;20884;-68
2023/07/12 09:34:21;;;;;;;11.43;4.50;;;51.90;1.00;;;;;;5049967;28;20477;-68
2023/07/12 09:36:55;;;;;;;7.50;4.23;;;50.60;1.00;;;;;;5043467;28;20500;-67
2023/07/12 09:39:22;;;;;;;9.33;4.30;;;48.70;1.00;;;;;;5047048;28;20505;-67
2023/07/12 09:41:54;;;;;;;7.93;3.97;;;46.80;1.00;;;;;;5050535;28;20504;-67
2023/07/12 09:44:21;;;;;;;7.80;4.90;;;44.90;1.00;;;;;;5045809;28;20478;-67
2023/07/12 09:46:53;;;;;;;9.50;4.23;;;43.50;1.00;;;;;;5049356;28;21004;-67
2023/07/12 09:49:25;;;;;;;8.53;4.07;;;42.30;1.00;;;;;;5049538;28;20481;-67
2023/07/12 09:52:01;;;;;;;8.37;4.40;;;41.20;1.00;;;;;;5049836;28;20462;-67
2023/07/12 09:54:39;;;;;;;7.30;4.53;;;40.10;1.00;;;;;;5048349;28;20503;-67
2023/07/12 09:57:15;;;;;;;10.50;4.90;;;39.10;1.00;;;;;;5048721;28;20461;-67
2023/07/12 09:59:57;;;;;;;8.10;4.37;;;38.30;1.00;;;;;;5044314;28;20470;-67
2023/07/12 10:02:32;;;;;;;9.77;5.00;;;37.60;1.00;;;;;;5047504;28;20481;-67
2023/07/12 10:05:05;;;;;;;8.93;4.97;;;36.90;1.00;;;;;;5073139;22;20511;-68
2023/07/12 10:07:53;;;;;;;11.70;5.27;;;36.30;1.00;;;;;;5072019;28;20484;-67
2023/07/12 10:10:26;;;;;;;10.00;5.33;;;35.90;1.00;;;;;;5066699;28;20493;-67
2023/07/12 10:13:01;;;;;;;9.23;5.07;;;35.50;1.00;;;;;;5062438;28;20462;-67
2023/07/12 10:15:33;;;;;;;11.90;5.77;;;35.10;1.00;;;;;;5051075;28;20468;-67
2023/07/12 10:18:00;;;;;;;8.03;5.23;;;34.80;1.00;;;;;;5053432;28;20531;-67
2023/07/12 10:20:29;;;;;;;8.70;4.50;;;34.60;1.00;;;;;;5052815;28;20631;-67
2023/07/12 10:22:56;;;;;;;10.00;6.17;;;34.40;1.00;;;;;;5053390;28;20462;-67
2023/07/12 10:25:26;;;;;;;8.83;5.87;;;34.20;1.00;;;;;;5045740;28;20546;-67
2023/07/12 10:28:01;;;;;;;10.60;5.70;;;33.90;1.00;;;;;;5049763;28;20454;-67
2023/07/12 10:30:30;;;;;;;7.70;5.27;;;33.70;1.00;;;;;;5045125;28;20468;-67
2023/07/12 10:33:03;;;;;;;9.57;5.87;;;33.50;1.00;;;;;;5049692;28;20457;-67
2023/07/12 10:35:42;;;;;;;8.83;5.63;;;33.30;2.30;;;;;;5054528;28;20497;-67
2023/07/12 10:38:13;;;;;;;9.87;5.60;;;33.10;2.10;;;;;;5048502;28;20465;-67
2023/07/12 10:40:46;;;;;;;10.93;5.97;;;32.80;2.20;;;;;;5051319;28;20470;-67
2023/07/12 10:43:17;;;;;;;9.07;6.07;;;32.60;2.20;;;;;;5046915;28;20490;-67
2023/07/12 10:45:44;;;;;;;10.77;5.97;;;32.40;2.80;;;;;;5046360;28;20485;-67
2023/07/12 10:48:20;;;;;;;8.87;5.97;;;32.30;3.00;;;;;;5046279;28;20469;-67
2023/07/12 10:50:50;;;;;;;8.90;6.00;;;32.20;3.60;;;;;;5055458;28;20469;-67
2023/07/12 10:53:21;;;;;;;11.87;6.13;;;32.20;3.90;;;;;;5052557;28;20482;-67
2023/07/12 10:56:06;;;;;;;9.43;6.43;;;32.30;3.20;;;;;;5052591;28;20473;-67
2023/07/12 10:58:51;;;;;;;11.97;6.10;;;32.30;2.80;;;;;;5051060;28;20460;-67
2023/07/12 11:01:48;;;;;;;9.77;6.67;;;32.30;2.50;;;;;;5049663;28;21005;-67
2023/07/12 11:04:17;;;;;;;9.53;6.00;;;32.40;3.80;;;;;;5049432;28;20493;-68
2023/07/12 11:07:30;;;;;;;12.40;6.40;;;32.40;4.60;;;;;;5051183;28;21052;-67
2023/07/12 11:10:25;;;;;;;17.10;6.47;;;32.20;5.40;;;;;;5053010;28;20504;-67
2023/07/12 11:12:56;;;;;;;8.50;6.13;;;32.10;4.80;;;;;;5034407;28;20469;-67
2023/07/12 11:15:24;;;;;;;11.03;6.40;;;32.10;4.10;;;;;;5050757;28;20969;-67
2023/07/12 11:18:01;;;;;;;16.83;8.43;;;32.10;5.80;;;;;;5047269;28;20461;-67
2023/07/12 11:20:30;;;;;;;15.63;7.63;;;31.90;7.00;;;;;;5048101;28;21017;-67
2023/07/12 11:23:01;;;;;;;16.20;9.00;;;31.60;8.70;;;;;;5051872;28;20962;-67
2023/07/12 11:25:57;;;;;;;14.87;8.33;;;31.40;9.80;;;;;;5050779;28;20469;-67
2023/07/12 11:28:42;;;;;;;13.50;8.90;;;31.20;10.60;;;;;;5053583;28;20843;-67
2023/07/12 11:31:26;;;;;;;9.77;7.10;;;30.90;11.50;;;;;;5049100;28;20473;-67
2023/07/12 11:33:56;;;;;;;13.20;8.50;;;30.70;12.80;;;;;;5049492;28;20477;-67
2023/07/12 11:36:25;;;;;;;14.60;8.93;;;30.60;12.60;;;;;;5050979;28;20454;-68
2023/07/12 11:38:56;;;;;;;11.33;8.10;;;30.40;14.30;;;;;;5049633;28;20462;-67
2023/07/12 11:41:25;;;;;;;11.10;7.90;;;30.40;14.40;;;;;;5057938;28;20798;-66
2023/07/12 11:43:59;;;;;;;10.83;7.57;;;30.50;14.80;;;;;;5050787;28;20485;-67
2023/07/12 11:46:29;;;;;;;9.60;7.00;;;30.80;13.00;;;;;;5054202;28;20478;-67
2023/07/12 11:49:02;;;;;;;15.10;7.73;;;31.10;12.20;;;;;;5060366;28;20547;-67
2023/07/12 11:51:34;;;;;;;11.23;7.47;;;31.10;11.40;;;;;;5057865;28;20462;-68
2023/07/12 11:54:03;;;;;;;12.23;7.87;;;31.20;10.50;;;;;;5054282;28;20477;-67
2023/07/12 11:56:30;;;;;;;11.90;7.60;;;31.00;10.90;;;;;;5049188;28;20459;-67
2023/07/12 11:58:57;;;;;;;12.53;7.80;;;30.80;10.40;;;;;;5053846;28;20460;-68
2023/07/12 12:01:23;;;;;;;11.67;7.00;;;30.50;10.40;;;;;;5047582;28;20470;-67
2023/07/12 12:03:52;;;;;;;14.70;8.20;;;30.20;10.40;;;;;;5055978;28;20473;-68
2023/07/12 12:06:21;;;;;;;15.20;8.30;;;30.10;11.40;;;;;;5046659;28;20497;-68
2023/07/12 12:08:54;;;;;;;11.47;7.80;;;29.80;12.00;;;;;;5051843;28;20473;-67
2023/07/12 12:11:22;;;;;;;15.47;9.10;;;29.50;12.70;;;;;;5050976;28;20915;-67
2023/07/12 12:13:52;;;;;;;15.67;8.73;;;29.20;12.60;;;;;;5056428;28;20484;-67
2023/07/12 12:16:21;;;;;;;17.17;9.70;;;28.80;13.70;;;;;;5047760;28;20466;-66
2023/07/12 12:18:54;;;;;;;13.03;9.70;;;27.60;15.60;;;;;;5042635;28;20496;-68
2023/07/12 12:21:23;;;;;;;11.87;9.23;;;26.50;19.30;;;;;;5047851;28;20458;-67
2023/07/12 12:23:53;;;;;;;13.37;10.70;;;25.80;23.40;;;;;;5051038;28;20473;-68
2023/07/12 12:26:26;;;;;;;13.80;9.00;;;25.30;27.50;;;;;;5052003;28;20481;-67
2023/07/12 12:28:58;;;;;;;14.07;9.07;;;25.00;31.90;;;;;;5048642;28;20465;-68
2023/07/12 12:31:26;;;;;;;16.07;10.17;;;24.80;29.70;;;;;;5054956;28;20466;-67
2023/07/12 12:34:03;;;;;;;14.30;9.90;;;24.60;31.30;;;;;;5047571;28;20910;-67
2023/07/12 12:36:34;;;;;;;14.43;11.23;;;24.40;32.40;;;;;;5051154;28;20476;-67
2023/07/12 12:39:05;;;;;;;16.10;10.73;;;24.20;33.20;;;;;;5045298;28;20809;-67
2023/07/12 12:41:39;;;;;;;17.27;11.47;;;24.20;33.40;;;;;;5040668;28;20466;-67
2023/07/12 12:44:09;;;;;;;19.73;13.73;;;24.10;35.20;;;;;;5048881;28;21050;-68
2023/07/12 12:46:36;;;;;;;17.33;12.83;;;24.00;35.40;;;;;;5053415;28;20485;-68
2023/07/12 12:49:04;;;;;;;14.40;9.90;;;24.00;36.00;;;;;;5048146;28;20469;-68
2023/07/12 12:51:31;;;;;;;14.90;10.97;;;24.00;35.70;;;;;;5051616;28;20937;-68
2023/07/12 12:53:58;;;;;;;9.40;7.27;;;24.00;34.80;;;;;;5056807;28;21003;-69